createdAt,value
2024-02-29T00:00:19.071Z,6.37
2024-02-29T00:02:46.532Z,6.20
2024-02-29T00:05:14.099Z,6.00
2024-02-29T00:07:44.247Z,6.50
2024-02-29T00:10:11.850Z,6.37
2024-02-29T00:12:41.083Z,6.60
2024-02-29T00:15:09.013Z,6.97
2024-02-29T00:17:36.505Z,6.50
2024-02-29T00:20:04.173Z,6.90
2024-02-29T00:22:31.897Z,6.63
2024-02-29T00:25:00.819Z,6.60
2024-02-29T00:27:28.389Z,6.90
2024-02-29T00:29:55.805Z,7.03
2024-02-29T00:32:23.679Z,6.53
2024-02-29T00:34:51.512Z,7.10
2024-02-29T00:37:19.039Z,7.30
2024-02-29T00:39:46.523Z,7.03
2024-02-29T00:42:15.335Z,7.33
2024-02-29T00:44:42.770Z,6.63
2024-02-29T00:47:10.288Z,6.23
2024-02-29T00:49:37.747Z,6.97
2024-02-29T00:52:05.443Z,7.20
2024-02-29T00:54:32.952Z,6.93
2024-02-29T00:57:00.980Z,7.17
2024-02-29T00:59:29.794Z,7.10
2024-02-29T01:01:57.903Z,7.10
2024-02-29T01:04:25.540Z,6.90
2024-02-29T01:06:53.058Z,7.30
2024-02-29T01:09:24.536Z,6.60
2024-02-29T01:11:52.099Z,7.63
2024-02-29T01:14:19.526Z,7.43
2024-02-29T01:16:49.528Z,8.27
2024-02-29T01:19:17.341Z,7.80
2024-02-29T01:21:44.801Z,7.80
2024-02-29T01:24:12.284Z,8.23
2024-02-29T01:26:39.734Z,8.73
2024-02-29T01:29:07.348Z,8.23
2024-02-29T01:31:34.931Z,7.87
2024-02-29T01:34:03.854Z,8.67
2024-02-29T01:36:31.423Z,8.40
2024-02-29T01:38:58.896Z,7.57
2024-02-29T01:41:26.832Z,8.07
2024-02-29T01:43:54.857Z,7.60
2024-02-29T01:46:22.601Z,7.47
2024-02-29T01:48:50.527Z,8.90
2024-02-29T01:51:20.129Z,8.20
2024-02-29T01:53:47.754Z,8.10
2024-02-29T01:56:15.325Z,9.03
2024-02-29T01:58:43.774Z,8.20
2024-02-29T02:01:11.604Z,8.40
2024-02-29T02:03:39.585Z,8.50
2024-02-29T02:06:07.355Z,8.43
2024-02-29T02:08:37.401Z,8.20
2024-02-29T02:11:05.067Z,8.30
2024-02-29T02:13:32.527Z,8.77
2024-02-29T02:16:00.005Z,8.20
2024-02-29T02:18:27.539Z,7.80
2024-02-29T02:20:56.366Z,7.70
2024-02-29T02:23:24.173Z,8.17
2024-02-29T02:25:52.078Z,8.20
2024-02-29T02:28:20.192Z,7.17
2024-02-29T02:30:48.031Z,6.90
2024-02-29T02:33:16.652Z,7.40
2024-02-29T02:35:44.121Z,7.50
2024-02-29T02:38:12.964Z,7.53
2024-02-29T02:40:40.451Z,7.00
2024-02-29T02:43:08.097Z,7.50
2024-02-29T02:45:35.660Z,7.07
2024-02-29T02:48:03.224Z,7.20
2024-02-29T02:50:30.771Z,6.80
2024-02-29T02:52:58.567Z,7.77
2024-02-29T02:55:27.357Z,7.30
2024-02-29T02:57:54.837Z,7.80
2024-02-29T03:00:22.342Z,7.70
2024-02-29T03:02:49.817Z,7.30
2024-02-29T03:05:18.175Z,7.37
2024-02-29T03:07:45.706Z,7.63
2024-02-29T03:10:13.233Z,7.80
2024-02-29T03:12:42.105Z,7.47
2024-02-29T03:15:10.367Z,7.40
2024-02-29T03:17:37.950Z,7.60
2024-02-29T03:20:09.492Z,8.17
2024-02-29T03:22:36.926Z,7.53
2024-02-29T03:25:04.718Z,8.93
2024-02-29T03:27:32.229Z,8.40
2024-02-29T03:30:01.221Z,8.43
2024-02-29T03:32:28.702Z,7.50
2024-02-29T03:34:56.154Z,7.97
2024-02-29T03:37:23.832Z,9.07
2024-02-29T03:39:51.455Z,8.73
2024-02-29T03:42:19.025Z,8.10
2024-02-29T03:44:47.154Z,8.40
2024-02-29T03:47:16.033Z,8.53
2024-02-29T03:49:43.537Z,7.77
2024-02-29T03:52:11.213Z,8.27
2024-02-29T03:54:38.759Z,8.67
2024-02-29T03:57:06.334Z,7.77
2024-02-29T03:59:33.758Z,7.90
2024-02-29T04:02:01.950Z,8.30
2024-02-29T04:04:31.100Z,7.70
2024-02-29T04:06:59.385Z,8.87
2024-02-29T04:09:26.976Z,7.30
2024-02-29T04:11:54.528Z,7.93
2024-02-29T04:14:22.053Z,8.10
2024-02-29T04:16:49.469Z,6.83
2024-02-29T04:19:17.620Z,7.70
2024-02-29T04:21:47.637Z,7.50
2024-02-29T04:24:15.107Z,7.33
2024-02-29T04:26:42.555Z,7.60
2024-02-29T04:29:09.993Z,7.30
2024-02-29T04:31:38.029Z,7.23
2024-02-29T04:34:05.610Z,7.90
2024-02-29T04:36:33.150Z,8.00
2024-02-29T04:39:02.086Z,8.40
2024-02-29T04:41:29.782Z,7.90
2024-02-29T04:43:57.440Z,8.33
2024-02-29T04:46:24.961Z,8.00
2024-02-29T04:48:52.442Z,8.40
2024-02-29T04:51:19.892Z,8.40
2024-02-29T04:53:47.426Z,7.80
2024-02-29T04:56:16.361Z,8.60
2024-02-29T04:58:43.801Z,8.90
2024-02-29T05:01:11.897Z,8.43
2024-02-29T05:03:39.419Z,8.50
2024-02-29T05:06:08.760Z,8.67
2024-02-29T05:08:36.272Z,8.27
2024-02-29T05:11:03.734Z,8.50
2024-02-29T05:13:32.746Z,9.30
2024-02-29T05:16:00.219Z,8.83
2024-02-29T05:18:28.864Z,9.70
2024-02-29T05:20:56.343Z,9.20
2024-02-29T05:23:24.200Z,9.03
2024-02-29T05:25:51.715Z,8.90
2024-02-29T05:28:19.285Z,10.03
2024-02-29T05:30:48.382Z,10.00
2024-02-29T05:33:15.879Z,9.30
2024-02-29T05:35:43.701Z,9.80
2024-02-29T05:38:11.130Z,9.40
2024-02-29T05:40:39.118Z,8.93
2024-02-29T05:43:06.611Z,10.07
2024-02-29T05:45:34.131Z,9.93
2024-02-29T05:48:04.883Z,9.60
2024-02-29T05:50:34.492Z,9.20
2024-02-29T05:53:02.731Z,9.50
2024-02-29T05:55:30.194Z,10.17
2024-02-29T05:57:57.620Z,9.80
2024-02-29T06:00:25.067Z,10.07
2024-02-29T06:02:53.212Z,10.40
2024-02-29T06:05:24.164Z,9.93
2024-02-29T06:07:51.612Z,9.20
2024-02-29T06:10:20.612Z,9.23
2024-02-29T06:12:48.135Z,9.13
2024-02-29T06:15:15.727Z,8.90
2024-02-29T06:17:43.179Z,8.77
2024-02-29T06:20:13.058Z,9.37
2024-02-29T06:22:42.319Z,8.80
2024-02-29T06:25:10.860Z,8.07
2024-02-29T06:27:39.041Z,8.70
2024-02-29T06:30:07.532Z,7.80
2024-02-29T06:32:34.981Z,8.80
2024-02-29T06:35:02.682Z,8.60
2024-02-29T06:37:30.421Z,8.23
2024-02-29T06:39:59.781Z,8.20
2024-02-29T06:42:27.929Z,8.60
2024-02-29T06:44:55.576Z,8.20
2024-02-29T06:47:23.042Z,7.40
2024-02-29T06:49:50.906Z,8.57
2024-02-29T06:52:18.459Z,7.70
2024-02-29T06:54:46.690Z,7.70
2024-02-29T06:57:16.020Z,7.20
2024-02-29T06:59:43.457Z,7.43
2024-02-29T07:02:10.976Z,7.53
2024-02-29T07:04:39.106Z,7.67
2024-02-29T07:07:09.177Z,7.80
2024-02-29T07:09:36.745Z,8.47
2024-02-29T07:12:04.410Z,8.00
2024-02-29T07:14:33.545Z,7.43
2024-02-29T07:17:01.001Z,6.93
2024-02-29T07:19:28.471Z,7.70
2024-02-29T07:21:55.898Z,6.30
2024-02-29T07:24:23.666Z,7.30
2024-02-29T07:26:51.141Z,7.00
2024-02-29T07:29:18.837Z,7.77
2024-02-29T07:31:49.120Z,6.93
2024-02-29T07:34:18.785Z,6.57
2024-02-29T07:36:46.911Z,7.57
2024-02-29T07:39:14.529Z,8.20
2024-02-29T07:41:42.206Z,7.37
2024-02-29T07:44:09.696Z,7.60
2024-02-29T07:46:37.328Z,6.90
2024-02-29T07:49:06.222Z,6.90
2024-02-29T07:51:33.624Z,6.70
2024-02-29T07:54:01.067Z,7.00
2024-02-29T07:56:30.326Z,6.57
2024-02-29T07:58:58.285Z,6.90
2024-02-29T08:01:26.877Z,6.93
2024-02-29T08:03:54.825Z,7.20
2024-02-29T08:06:23.693Z,7.47
2024-02-29T08:08:51.128Z,6.73
2024-02-29T08:11:18.603Z,7.13
2024-02-29T08:13:46.426Z,6.80
2024-02-29T08:16:14.003Z,6.70
2024-02-29T08:18:41.576Z,7.23
2024-02-29T08:21:09.165Z,7.30
2024-02-29T08:23:37.917Z,7.17
2024-02-29T08:26:08.602Z,6.77
2024-02-29T08:28:36.495Z,6.70
2024-02-29T08:31:04.234Z,6.83
2024-02-29T08:33:31.731Z,6.27
2024-02-29T08:35:59.150Z,6.93
2024-02-29T08:38:26.586Z,6.80
2024-02-29T08:40:55.385Z,6.10
2024-02-29T08:43:22.989Z,6.70
2024-02-29T08:45:51.059Z,6.00
2024-02-29T08:48:18.622Z,6.10
2024-02-29T08:50:46.058Z,5.80
2024-02-29T08:53:13.611Z,6.40
2024-02-29T08:55:41.430Z,5.83
2024-02-29T08:58:11.548Z,5.80
2024-02-29T09:00:39.169Z,5.43
2024-02-29T09:03:08.779Z,5.60
2024-02-29T09:05:36.326Z,5.20
2024-02-29T09:08:03.907Z,5.40
2024-02-29T09:10:31.581Z,5.20
2024-02-29T09:12:59.114Z,4.83
2024-02-29T09:15:28.321Z,4.73
2024-02-29T09:17:55.767Z,4.70
2024-02-29T09:20:23.264Z,4.50
2024-02-29T09:22:51.311Z,4.80
2024-02-29T09:25:19.446Z,4.50
2024-02-29T09:27:47.061Z,5.20
2024-02-29T09:30:14.993Z,4.83
2024-02-29T09:32:44.987Z,4.87
2024-02-29T09:35:12.561Z,4.40
2024-02-29T09:37:39.966Z,4.43
2024-02-29T09:40:08.565Z,4.40
2024-02-29T09:42:37.807Z,4.50
2024-02-29T09:45:06.510Z,4.20
2024-02-29T09:47:34.664Z,3.97
2024-02-29T09:50:05.773Z,4.50
2024-02-29T09:52:35.646Z,4.83
2024-02-29T09:55:05.860Z,4.40
2024-02-29T09:57:34.011Z,4.70
2024-02-29T10:00:01.801Z,4.50
2024-02-29T10:02:29.284Z,3.70
2024-02-29T10:04:57.361Z,3.70
2024-02-29T10:07:26.550Z,4.13
2024-02-29T10:09:54.871Z,4.20
2024-02-29T10:12:22.368Z,4.43
2024-02-29T10:14:59.838Z,4.10
2024-02-29T10:17:27.448Z,3.87
2024-02-29T10:19:54.878Z,3.77
2024-02-29T10:22:22.871Z,3.53
2024-02-29T10:24:52.935Z,3.83
2024-02-29T10:27:20.518Z,4.00
2024-02-29T10:29:50.275Z,4.70
2024-02-29T10:32:17.707Z,4.00
2024-02-29T10:34:47.255Z,4.57
2024-02-29T10:37:14.905Z,3.83
2024-02-29T10:39:43.776Z,3.50
2024-02-29T10:42:12.772Z,3.53
2024-02-29T10:44:41.453Z,2.90
2024-02-29T10:47:09.993Z,3.70
2024-02-29T10:49:39.816Z,3.30
2024-02-29T10:52:10.364Z,3.00
2024-02-29T10:54:40.958Z,3.27
2024-02-29T10:57:10.278Z,3.67
2024-02-29T10:59:41.423Z,3.17
2024-02-29T11:02:09.308Z,3.40
2024-02-29T11:04:37.216Z,3.43
2024-02-29T11:07:05.288Z,3.60
2024-02-29T11:09:33.751Z,3.63
2024-02-29T11:12:10.975Z,3.60
2024-02-29T11:14:39.811Z,3.63
2024-02-29T11:17:07.378Z,3.90
2024-02-29T11:19:43.363Z,3.90
2024-02-29T11:22:18.979Z,3.73
2024-02-29T11:24:47.460Z,3.70
2024-02-29T11:27:15.191Z,3.70
2024-02-29T11:29:46.879Z,3.27
2024-02-29T11:32:14.485Z,3.53
2024-02-29T11:34:41.146Z,3.43
2024-02-29T11:37:10.673Z,3.87
2024-02-29T11:39:38.226Z,3.60
2024-02-29T11:42:07.749Z,3.20
2024-02-29T11:44:35.619Z,3.27
2024-02-29T11:47:04.778Z,3.20
2024-02-29T11:49:32.270Z,3.43
2024-02-29T11:52:00.151Z,2.87
2024-02-29T11:54:27.649Z,2.80
2024-02-29T11:56:55.940Z,3.10
2024-02-29T11:59:23.397Z,3.30
2024-02-29T12:01:50.961Z,3.00
2024-02-29T12:04:20.104Z,2.43
2024-02-29T12:06:48.231Z,2.77
2024-02-29T12:09:16.222Z,2.60
2024-02-29T12:11:44.586Z,2.83
2024-02-29T12:14:12.349Z,2.50
2024-02-29T12:16:42.126Z,2.87
2024-02-29T12:19:09.604Z,2.60
2024-02-29T12:21:38.504Z,2.60
2024-02-29T12:24:08.401Z,2.57
2024-02-29T12:26:36.070Z,2.50
2024-02-29T12:29:04.136Z,2.50
2024-02-29T12:31:31.645Z,2.60
2024-02-29T12:34:01.373Z,2.30
2024-02-29T12:36:29.572Z,2.10
2024-02-29T12:38:58.418Z,2.30
2024-02-29T12:41:26.355Z,2.37
2024-02-29T12:43:55.316Z,2.30
2024-02-29T12:46:22.916Z,2.70
2024-02-29T12:48:50.995Z,2.73
2024-02-29T12:51:18.525Z,2.17
2024-02-29T12:53:45.974Z,2.60
2024-02-29T12:56:15.675Z,2.43
2024-02-29T12:58:47.527Z,2.60
2024-02-29T13:01:15.926Z,2.60
2024-02-29T13:03:44.431Z,2.40
2024-02-29T13:06:12.833Z,2.60
2024-02-29T13:08:40.324Z,2.40
2024-02-29T13:11:07.891Z,2.30
2024-02-29T13:13:38.364Z,2.40
2024-02-29T13:16:06.317Z,2.60
2024-02-29T13:18:33.759Z,2.27
2024-02-29T13:21:03.809Z,1.80
2024-02-29T13:23:33.050Z,1.87
2024-02-29T13:26:01.030Z,1.93
2024-02-29T13:28:28.670Z,1.97
2024-02-29T13:30:57.503Z,1.90
2024-02-29T13:33:25.153Z,2.40
2024-02-29T13:35:52.671Z,2.60
2024-02-29T13:38:20.193Z,1.90
2024-02-29T13:40:47.683Z,2.70
2024-02-29T13:43:16.267Z,2.63
2024-02-29T13:45:43.817Z,2.40
2024-02-29T13:48:12.931Z,2.43
2024-02-29T13:50:42.829Z,2.30
2024-02-29T13:53:10.569Z,2.23
2024-02-29T13:55:38.095Z,2.33
2024-02-29T13:58:05.888Z,2.23
2024-02-29T14:00:34.298Z,2.30
2024-02-29T14:03:01.910Z,2.47
2024-02-29T14:05:30.885Z,2.20
2024-02-29T14:07:58.483Z,2.40
2024-02-29T14:10:26.029Z,2.10
2024-02-29T14:12:53.581Z,2.57
2024-02-29T14:15:23.220Z,2.30
2024-02-29T14:17:51.513Z,2.70
2024-02-29T14:20:19.097Z,2.20
2024-02-29T14:22:47.924Z,1.90
2024-02-29T14:25:15.545Z,2.20
2024-02-29T14:27:43.143Z,2.60
2024-02-29T14:30:13.457Z,2.60
2024-02-29T14:32:41.632Z,2.70
2024-02-29T14:35:10.705Z,2.50
2024-02-29T14:37:38.503Z,2.87
2024-02-29T14:40:11.887Z,2.80
2024-02-29T14:42:39.542Z,2.63
2024-02-29T14:45:07.787Z,2.63
2024-02-29T14:47:35.303Z,2.37
2024-02-29T14:50:02.821Z,2.63
2024-02-29T14:52:30.345Z,2.67
2024-02-29T14:54:58.101Z,2.53
2024-02-29T14:57:26.959Z,2.77
2024-02-29T14:59:54.542Z,2.77
2024-02-29T15:02:21.956Z,2.40
2024-02-29T15:04:49.427Z,2.50
2024-02-29T15:07:17.001Z,2.90
2024-02-29T15:09:44.507Z,2.80
2024-02-29T15:12:12.453Z,2.70
2024-02-29T15:14:41.318Z,3.00
2024-02-29T15:17:08.758Z,2.20
2024-02-29T15:19:36.542Z,2.17
2024-02-29T15:22:04.338Z,2.33
2024-02-29T15:24:31.802Z,2.10
2024-02-29T15:27:00.598Z,2.07
2024-02-29T15:29:28.334Z,1.97
2024-02-29T15:31:57.154Z,2.10
2024-02-29T15:34:24.710Z,2.40
2024-02-29T15:36:52.227Z,2.07
2024-02-29T15:39:19.698Z,2.90
2024-02-29T15:41:47.145Z,2.37
2024-02-29T15:44:14.660Z,2.07
2024-02-29T15:46:44.234Z,2.63
2024-02-29T15:49:13.857Z,3.20
2024-02-29T15:51:41.326Z,2.10
2024-02-29T15:54:08.947Z,2.07
2024-02-29T15:56:36.528Z,2.13
2024-02-29T15:59:04.342Z,2.23
2024-02-29T16:01:31.856Z,2.20
2024-02-29T16:03:59.322Z,2.13
2024-02-29T16:06:28.153Z,2.00
2024-02-29T16:08:55.581Z,2.20
2024-02-29T16:11:23.177Z,2.10
2024-02-29T16:13:50.911Z,2.30
2024-02-29T16:16:18.456Z,2.10
2024-02-29T16:18:46.710Z,2.03
2024-02-29T16:21:14.293Z,2.03
2024-02-29T16:23:43.234Z,2.20
2024-02-29T16:26:10.680Z,2.60
2024-02-29T16:28:38.143Z,3.57
2024-02-29T16:31:05.761Z,2.27
2024-02-29T16:33:33.417Z,2.10
2024-02-29T16:36:01.141Z,2.77
2024-02-29T16:38:29.820Z,2.20
2024-02-29T16:40:59.834Z,2.50
2024-02-29T16:43:29.539Z,2.40
2024-02-29T16:45:57.262Z,1.93
2024-02-29T16:48:24.822Z,2.10
2024-02-29T16:50:54.500Z,2.20
2024-02-29T16:53:21.933Z,2.10
2024-02-29T16:55:49.454Z,2.17
2024-02-29T16:58:18.908Z,2.00
2024-02-29T17:00:46.453Z,1.90
2024-02-29T17:03:14.180Z,2.20
2024-02-29T17:05:41.696Z,1.90
2024-02-29T17:08:09.997Z,2.20
2024-02-29T17:10:37.479Z,2.50
2024-02-29T17:13:05.466Z,2.57
2024-02-29T17:15:36.505Z,3.17
2024-02-29T17:18:05.601Z,3.50
2024-02-29T17:20:33.173Z,2.70
2024-02-29T17:23:00.639Z,2.70
2024-02-29T17:25:28.446Z,2.40
2024-02-29T17:27:57.566Z,3.70
2024-02-29T17:30:25.508Z,5.70
2024-02-29T17:32:54.868Z,4.90
2024-02-29T17:35:22.326Z,3.87
2024-02-29T17:37:50.510Z,2.97
2024-02-29T17:40:18.100Z,3.03
2024-02-29T17:42:45.614Z,2.80
2024-02-29T17:45:13.181Z,3.13
2024-02-29T17:47:41.482Z,2.70
2024-02-29T17:50:16.436Z,3.13
2024-02-29T17:52:44.149Z,2.80
2024-02-29T17:55:14.882Z,2.80
2024-02-29T17:57:43.291Z,3.00
2024-02-29T18:00:11.959Z,3.00
2024-02-29T18:02:39.716Z,2.50
2024-02-29T18:05:07.370Z,3.17
2024-02-29T18:07:40.606Z,3.00
2024-02-29T18:10:11.556Z,3.33
2024-02-29T18:12:39.059Z,3.43
2024-02-29T18:15:07.020Z,3.17
2024-02-29T18:17:34.498Z,2.83
2024-02-29T18:20:04.060Z,3.13
2024-02-29T18:22:31.569Z,2.90
2024-02-29T18:25:00.691Z,2.73
2024-02-29T18:27:28.316Z,3.03
2024-02-29T18:29:55.757Z,3.00
2024-02-29T18:32:23.188Z,2.57
2024-02-29T18:34:50.621Z,2.80
2024-02-29T18:37:18.280Z,2.97
2024-02-29T18:39:45.927Z,2.70
2024-02-29T18:42:14.784Z,2.80
2024-02-29T18:44:42.646Z,2.73
2024-02-29T18:47:10.328Z,2.87
2024-02-29T18:49:38.113Z,2.70
2024-02-29T18:52:05.955Z,3.20
2024-02-29T18:54:33.406Z,3.00
2024-02-29T18:57:00.947Z,2.70
2024-02-29T18:59:30.643Z,3.50
2024-02-29T19:01:58.231Z,4.10
2024-02-29T19:04:25.810Z,3.40
2024-02-29T19:06:53.383Z,3.30
2024-02-29T19:09:20.823Z,3.60
2024-02-29T19:11:48.267Z,3.40
2024-02-29T19:14:15.741Z,3.40
2024-02-29T19:16:45.198Z,3.30
2024-02-29T19:19:15.843Z,3.50
2024-02-29T19:21:43.316Z,3.80
2024-02-29T19:24:12.210Z,3.33
2024-02-29T19:26:39.685Z,3.67
2024-02-29T19:29:07.155Z,3.87
2024-02-29T19:31:35.778Z,4.00
2024-02-29T19:34:04.967Z,3.83
2024-02-29T19:36:32.489Z,3.90
2024-02-29T19:39:00.072Z,4.50
2024-02-29T19:41:27.652Z,4.20
2024-02-29T19:43:55.121Z,4.20
2024-02-29T19:46:22.732Z,4.67
2024-02-29T19:48:50.260Z,4.27
2024-02-29T19:51:19.133Z,4.63
2024-02-29T19:53:47.779Z,4.60
2024-02-29T19:56:15.534Z,5.33
2024-02-29T19:58:43.441Z,5.97
2024-02-29T20:01:11.996Z,6.10
2024-02-29T20:03:39.453Z,6.40
2024-02-29T20:06:07.179Z,6.60
2024-02-29T20:08:35.942Z,6.57
2024-02-29T20:11:03.453Z,6.97
2024-02-29T20:13:30.976Z,6.77
2024-02-29T20:15:58.524Z,6.47
2024-02-29T20:18:28.220Z,6.70
2024-02-29T20:20:55.861Z,6.97
2024-02-29T20:23:23.320Z,7.03
2024-02-29T20:25:52.383Z,6.87
2024-02-29T20:28:19.861Z,7.67
2024-02-29T20:30:48.353Z,8.20
2024-02-29T20:33:16.478Z,8.27
2024-02-29T20:35:44.132Z,8.07
2024-02-29T20:38:14.523Z,7.27
2024-02-29T20:40:41.994Z,8.40
2024-02-29T20:43:10.836Z,8.50
2024-02-29T20:45:38.301Z,8.60
2024-02-29T20:48:06.237Z,9.60
2024-02-29T20:50:34.030Z,9.00
2024-02-29T20:53:01.744Z,8.97
2024-02-29T20:55:31.171Z,9.90
2024-02-29T20:57:58.671Z,8.90
2024-02-29T21:00:27.603Z,8.73
2024-02-29T21:02:55.535Z,9.20
2024-02-29T21:05:23.109Z,9.50
2024-02-29T21:07:50.588Z,10.10
2024-02-29T21:10:18.844Z,10.10
2024-02-29T21:12:46.426Z,9.40
2024-02-29T21:15:13.926Z,9.30
2024-02-29T21:17:42.711Z,9.23
2024-02-29T21:20:11.987Z,9.23
2024-02-29T21:22:44.549Z,9.63
2024-02-29T21:25:12.283Z,10.00
2024-02-29T21:27:39.773Z,9.80
2024-02-29T21:30:08.334Z,10.63
2024-02-29T21:32:35.925Z,10.70
2024-02-29T21:35:06.302Z,10.03
2024-02-29T21:37:33.792Z,10.20
2024-02-29T21:40:01.959Z,10.87
2024-02-29T21:42:29.492Z,10.67
2024-02-29T21:44:56.930Z,10.70
2024-02-29T21:47:25.484Z,10.83
2024-02-29T21:49:53.663Z,10.80
2024-02-29T21:52:22.861Z,10.93
2024-02-29T21:54:50.341Z,12.10
2024-02-29T21:57:18.185Z,11.40
2024-02-29T21:59:45.831Z,11.27
2024-02-29T22:02:13.833Z,12.10
2024-02-29T22:04:41.734Z,10.90
2024-02-29T22:07:09.167Z,11.20
2024-02-29T22:09:38.215Z,11.40
2024-02-29T22:12:05.902Z,11.40
2024-02-29T22:14:33.317Z,11.53
2024-02-29T22:17:00.812Z,11.57
2024-02-29T22:19:28.258Z,11.23
2024-02-29T22:21:55.770Z,12.27
2024-02-29T22:24:23.384Z,11.67
2024-02-29T22:26:52.207Z,11.17
2024-02-29T22:29:19.882Z,10.77
2024-02-29T22:31:47.546Z,11.23
2024-02-29T22:34:15.221Z,11.77
2024-02-29T22:36:43.015Z,11.50
2024-02-29T22:39:10.524Z,12.47
2024-02-29T22:41:48.077Z,12.23
2024-02-29T22:44:21.435Z,11.77
2024-02-29T22:46:49.369Z,11.67
2024-02-29T22:49:16.910Z,11.50
2024-02-29T22:51:44.484Z,12.80
2024-02-29T22:54:12.012Z,12.30
2024-02-29T22:56:39.574Z,12.13
2024-02-29T22:59:07.009Z,12.30
2024-02-29T23:01:40.744Z,12.07
2024-02-29T23:04:09.360Z,12.83
2024-02-29T23:06:36.897Z,12.90
2024-02-29T23:09:04.529Z,12.50
2024-02-29T23:11:32.211Z,13.53
2024-02-29T23:13:59.933Z,12.57
2024-02-29T23:16:28.183Z,13.00
2024-02-29T23:18:57.062Z,12.23
2024-02-29T23:21:25.132Z,12.43
2024-02-29T23:23:52.622Z,12.70
2024-02-29T23:26:22.107Z,12.10
2024-02-29T23:28:49.581Z,13.00
2024-02-29T23:31:17.604Z,12.53
2024-02-29T23:33:45.048Z,12.20
2024-02-29T23:36:14.794Z,12.43
2024-02-29T23:38:42.255Z,12.00
2024-02-29T23:41:09.673Z,11.70
2024-02-29T23:43:38.014Z,11.80
2024-02-29T23:46:06.389Z,12.20
2024-02-29T23:48:33.982Z,11.70
2024-02-29T23:51:01.468Z,12.20
2024-02-29T23:53:30.237Z,13.30
2024-02-29T23:55:57.693Z,11.80
2024-02-29T23:58:25.225Z,11.23
